Time;durP1;ratioP1;P1;durP2;ratioP2;P2;SDS_P1;SDS_P2;PMS_P1;PMS_P2;Temp;Humidity;BMP_temperature;BMP_pressure;BME280_temperature;BME280_humidity;BME280_pressure;Samples;Min_cycle;Max_cycle;Signal;HPM_P1;HPM_P2
2024/01/23 00:00:09;;;;;;;11.73;1.80;;;;;;;5.77;100.00;100727.25;5027858;28;20068;-73
2024/01/23 00:02:40;;;;;;;9.15;1.55;;;;;;;5.79;100.00;100733.34;5040294;28;20046;-73
2024/01/23 00:05:10;;;;;;;5.80;1.40;;;;;;;5.76;100.00;100729.94;5044119;28;20046;-72
2024/01/23 00:07:38;;;;;;;11.50;1.50;;;;;;;5.74;100.00;100729.94;5020873;28;20048;-74
2024/01/23 00:10:08;;;;;;;8.20;1.63;;;;;;;5.63;100.00;100729.34;5014125;28;20413;-72
2024/01/23 00:12:36;;;;;;;11.07;1.77;;;;;;;5.72;100.00;100739.63;5028826;28;20093;-74
2024/01/23 00:15:05;;;;;;;8.80;1.65;;;;;;;5.74;100.00;100732.59;5023961;28;20081;-71
2024/01/23 00:17:33;;;;;;;6.18;1.50;;;;;;;5.78;100.00;100746.53;5023508;28;20042;-73
2024/01/23 00:20:04;;;;;;;9.93;1.52;;;;;;;5.81;100.00;100742.06;5029893;28;20038;-72
2024/01/23 00:22:32;;;;;;;8.85;1.60;;;;;;;5.90;100.00;100739.25;5045272;28;20045;-71
2024/01/23 00:25:00;;;;;;;11.90;2.00;;;;;;;5.92;100.00;100739.22;5016494;28;20037;-75
2024/01/23 00:27:32;;;;;;;13.45;1.65;;;;;;;5.97;100.00;100740.00;5006970;28;20128;-74
2024/01/23 00:30:02;;;;;;;8.57;1.60;;;;;;;5.93;100.00;100736.56;5040593;28;20912;-73
2024/01/23 00:32:31;;;;;;;8.43;1.70;;;;;;;5.93;100.00;100743.59;5028173;28;20136;-73
2024/01/23 00:35:00;;;;;;;14.43;2.33;;;;;;;5.95;100.00;100742.66;5027515;28;20049;-72
2024/01/23 00:37:31;;;;;;;12.40;2.30;;;;;;;6.01;100.00;100744.28;5003903;28;20041;-72
2024/01/23 00:39:59;;;;;;;12.38;1.90;;;;;;;6.02;100.00;100730.22;5030697;28;20108;-73
2024/01/23 00:42:28;;;;;;;12.25;2.15;;;;;;;5.98;100.00;100734.69;5026856;28;20140;-74
2024/01/23 00:44:56;;;;;;;10.73;1.80;;;;;;;5.92;100.00;100744.50;5038019;28;20037;-74
2024/01/23 00:47:25;;;;;;;10.07;2.38;;;;;;;5.80;100.00;100735.09;5018527;28;20523;-73
2024/01/23 00:49:57;;;;;;;20.92;2.35;;;;;;;5.91;100.00;100748.88;5044395;28;20171;-73
2024/01/23 00:52:26;;;;;;;11.50;2.00;;;;;;;5.92;100.00;100758.50;5022780;28;20045;-72
2024/01/23 00:55:02;;;;;;;13.10;1.95;;;;;;;5.86;100.00;100740.19;5029800;28;20072;-72
2024/01/23 00:57:30;;;;;;;12.57;2.08;;;;;;;5.83;100.00;100737.63;5022260;28;20113;-73
2024/01/23 01:00:01;;;;;;;14.50;2.50;;;;;;;5.83;100.00;100740.25;5031232;28;20037;-73
2024/01/23 01:02:29;;;;;;;12.57;2.30;;;;;;;5.78;100.00;100747.41;5032697;28;20064;-72
2024/01/23 01:04:57;;;;;;;14.25;2.05;;;;;;;5.78;100.00;100757.91;5043495;28;20045;-72
2024/01/23 01:07:25;;;;;;;17.20;3.03;;;;;;;5.77;100.00;100765.81;5020316;28;20038;-72
2024/01/23 01:09:56;;;;;;;11.20;2.15;;;;;;;5.76;100.00;100764.94;5032162;28;20038;-72
2024/01/23 01:12:24;;;;;;;16.27;1.98;;;;;;;5.70;100.00;100757.19;5044035;28;20131;-72
2024/01/23 01:14:53;;;;;;;13.82;2.67;;;;;;;5.76;100.00;100771.97;5033102;28;20046;-72
2024/01/23 01:17:21;;;;;;;12.70;2.30;;;;;;;5.72;100.00;100780.81;5032394;28;20111;-72
2024/01/23 01:19:49;;;;;;;13.82;2.35;;;;;;;5.65;100.00;100795.84;5027129;28;20054;-72
2024/01/23 01:22:18;;;;;;;14.13;3.15;;;;;;;5.63;100.00;100808.16;5030796;28;20068;-72
2024/01/23 01:24:45;;;;;;;17.58;2.95;;;;;;;5.59;100.00;100803.84;5031320;28;20041;-73
2024/01/23 01:27:16;;;;;;;12.82;1.90;;;;;;;5.52;100.00;100802.22;5019987;28;20044;-72
2024/01/23 01:29:44;;;;;;;14.60;2.60;;;;;;;5.41;100.00;100788.44;5045001;28;20045;-73
2024/01/23 01:32:15;;;;;;;11.95;1.92;;;;;;;5.45;100.00;100800.63;5028828;28;20044;-73
2024/01/23 01:34:43;;;;;;;15.20;1.90;;;;;;;5.39;100.00;100798.09;5029107;28;20052;-73
2024/01/23 01:37:12;;;;;;;12.60;2.15;;;;;;;5.41;100.00;100791.06;5034183;28;20134;-72
2024/01/23 01:39:40;;;;;;;9.50;1.77;;;;;;;5.35;100.00;100785.97;5017201;28;20141;-74
2024/01/23 01:42:08;;;;;;;12.15;2.42;;;;;;;5.33;100.00;100790.38;5032907;28;20038;-74
2024/01/23 01:44:40;;;;;;;12.20;2.38;;;;;;;5.29;100.00;100786.94;5033414;28;20049;-72
2024/01/23 01:47:09;;;;;;;10.73;2.28;;;;;;;5.37;100.00;100785.00;5017990;28;20045;-73
2024/01/23 01:49:37;;;;;;;13.90;2.15;;;;;;;5.50;100.00;100799.66;5036556;28;20041;-73
2024/01/23 01:52:06;;;;;;;15.63;2.53;;;;;;;5.58;100.00;100800.34;5030146;28;20077;-73
2024/01/23 01:54:34;;;;;;;13.40;2.28;;;;;;;5.54;100.00;100793.41;5043220;28;20509;-73
2024/01/23 01:57:03;;;;;;;12.70;2.08;;;;;;;5.60;100.00;100800.31;5016423;28;20034;-73
2024/01/23 01:59:37;;;;;;;8.20;1.63;;;;;;;5.58;100.00;100786.34;5028720;28;20052;-73
2024/01/23 02:02:07;;;;;;;13.40;1.85;;;;;;;5.64;100.00;100804.63;5041206;28;20045;-74
2024/01/23 02:04:35;;;;;;;11.43;2.40;;;;;;;5.59;100.00;100802.09;5029467;28;20045;-72
2024/01/23 02:07:03;;;;;;;15.60;1.80;;;;;;;5.60;100.00;100814.31;5023006;28;20050;-72
2024/01/23 02:09:32;;;;;;;14.32;2.33;;;;;;;5.49;100.00;100799.69;5019175;28;20140;-73
2024/01/23 02:12:01;;;;;;;13.05;2.17;;;;;;;5.46;100.00;100828.63;5018896;28;20037;-73
2024/01/23 02:14:31;;;;;;;9.40;1.67;;;;;;;5.41;100.00;100822.59;5026887;28;20045;-73
2024/01/23 02:17:00;;;;;;;12.63;1.75;;;;;;;5.42;100.00;100822.56;5022031;28;20677;-72
2024/01/23 02:19:31;;;;;;;10.07;2.13;;;;;;;5.39;100.00;100819.13;5028400;28;20080;-72
2024/01/23 02:22:01;;;;;;;11.93;2.20;;;;;;;5.42;100.00;100827.81;5036164;28;20124;-72
2024/01/23 02:24:34;;;;;;;12.82;2.05;;;;;;;5.41;100.00;100825.22;5027722;28;20489;-74
2024/01/23 02:27:03;;;;;;;10.52;2.00;;;;;;;5.36;100.00;100837.56;5020809;28;20051;-72
2024/01/23 02:29:31;;;;;;;12.85;2.17;;;;;;;5.35;100.00;100839.34;5011962;28;20064;-72
2024/01/23 02:32:03;;;;;;;11.93;1.77;;;;;;;5.33;100.00;100835.88;5026782;28;20048;-73
2024/01/23 02:34:32;;;;;;;10.70;1.60;;;;;;;5.31;100.00;100848.16;5024720;28;20045;-73
2024/01/23 02:37:02;;;;;;;8.70;1.70;;;;;;;5.29;100.00;100845.56;5032236;28;20111;-71
2024/01/23 02:39:31;;;;;;;19.85;2.38;;;;;;;5.33;100.00;100863.91;5027677;28;20037;-73
2024/01/23 02:42:04;;;;;;;10.60;2.15;;;;;;;5.28;100.00;100858.72;5033511;28;20482;-73
2024/01/23 02:44:34;;;;;;;15.38;2.63;;;;;;;5.34;100.00;100870.88;5034443;28;20060;-74
2024/01/23 02:47:03;;;;;;;9.40;2.13;;;;;;;5.38;100.00;100859.41;5030646;28;20057;-72
2024/01/23 02:49:32;;;;;;;11.10;1.90;;;;;;;5.50;100.00;100873.19;5032571;28;20056;-71
2024/01/23 02:52:03;;;;;;;10.20;1.95;;;;;;;5.50;100.00;100874.97;5028762;28;20041;-73
2024/01/23 02:54:34;;;;;;;13.07;1.98;;;;;;;5.50;100.00;100885.47;5034455;28;20041;-72
2024/01/23 02:57:05;;;;;;;13.60;2.22;;;;;;;5.47;100.00;100886.38;5024648;28;20096;-73
2024/01/23 02:59:35;;;;;;;11.80;2.10;;;;;;;5.45;100.00;100892.56;5042268;28;20100;-73
2024/01/23 03:02:03;;;;;;;12.00;2.30;;;;;;;5.46;100.00;100896.91;5029838;28;20569;-72
2024/01/23 03:04:34;;;;;;;13.07;2.28;;;;;;;5.54;100.00;100897.63;5026774;28;20069;-71
2024/01/23 03:07:04;;;;;;;14.17;1.73;;;;;;;5.52;100.00;100917.81;5021686;28;20124;-72
2024/01/23 03:09:33;;;;;;;12.30;2.22;;;;;;;5.51;100.00;100923.97;5019739;28;20046;-73
2024/01/23 03:12:14;;;;;;;10.63;2.03;;;;;;;5.49;100.00;100913.50;5029581;28;20056;-71
2024/01/23 03:14:43;;;;;;;17.08;2.03;;;;;;;5.58;100.00;100918.56;5027610;28;20569;-72
2024/01/23 03:17:12;;;;;;;14.73;1.90;;;;;;;5.57;100.00;100916.84;5020982;28;20041;-71
2024/01/23 03:19:41;;;;;;;13.68;2.38;;;;;;;5.66;100.00;100939.47;5041829;28;20534;-72
2024/01/23 03:22:10;;;;;;;10.25;1.83;;;;;;;5.62;100.00;100943.03;5034141;28;20053;-74
2024/01/23 03:24:40;;;;;;;11.10;2.22;;;;;;;5.51;100.00;100934.47;5032079;28;20049;-72
2024/01/23 03:27:12;;;;;;;13.75;1.65;;;;;;;5.53;100.00;100943.19;5038533;28;20046;-74
2024/01/23 03:29:42;;;;;;;15.27;1.98;;;;;;;5.52;100.00;100952.81;5028365;28;20033;-72
2024/01/23 03:32:13;;;;;;;7.38;1.73;;;;;;;5.50;100.00;100943.25;5022100;28;20068;-72
2024/01/23 03:34:44;;;;;;;16.50;2.35;;;;;;;5.52;100.00;100963.31;5023847;28;20588;-74
2024/01/23 03:37:15;;;;;;;9.18;1.83;;;;;;;5.49;100.00;100947.63;5005829;28;20069;-71
2024/01/23 03:39:46;;;;;;;11.30;1.77;;;;;;;5.59;100.00;100961.47;5020911;28;20049;-72
2024/01/23 03:42:16;;;;;;;15.52;1.48;;;;;;;5.57;100.00;100956.25;5046870;28;20049;-73
2024/01/23 03:44:44;;;;;;;15.35;1.92;;;;;;;5.61;100.00;100963.19;5034414;28;20049;-72
2024/01/23 03:47:12;;;;;;;12.57;1.98;;;;;;;5.62;100.00;100966.69;5033771;28;20837;-72
2024/01/23 03:49:41;;;;;;;11.05;1.80;;;;;;;5.70;100.00;100970.03;5023275;28;20045;-71
2024/01/23 03:52:09;;;;;;;12.93;2.00;;;;;;;5.63;100.00;100971.91;5048277;28;20123;-72
2024/01/23 03:54:37;;;;;;;8.63;1.42;;;;;;;5.63;100.00;100960.53;5027905;28;20452;-71
2024/01/23 03:57:06;;;;;;;11.38;1.60;;;;;;;5.64;100.00;100970.16;5041520;28;20055;-72
2024/01/23 03:59:37;;;;;;;13.95;2.33;;;;;;;5.59;100.00;100979.84;5016084;28;20045;-72
2024/01/23 04:02:05;;;;;;;8.48;1.40;;;;;;;5.59;100.00;100979.84;5012844;28;20054;-71
2024/01/23 04:04:34;;;;;;;11.57;1.60;;;;;;;5.52;100.00;100972.97;5025408;28;20046;-71
2024/01/23 04:07:05;;;;;;;6.63;1.23;;;;;;;5.51;100.00;100984.41;5032551;28;20046;-71
2024/01/23 04:09:33;;;;;;;9.15;1.50;;;;;;;5.52;100.00;100986.97;5021013;28;20122;-72
2024/01/23 04:12:03;;;;;;;9.88;1.40;;;;;;;5.44;100.00;100985.38;5043371;28;20045;-72
2024/01/23 04:14:34;;;;;;;9.20;1.58;;;;;;;5.45;100.00;100995.00;5048655;28;20040;-73
2024/01/23 04:17:04;;;;;;;8.77;1.85;;;;;;;5.42;100.00;101001.16;5025355;28;20136;-72
2024/01/23 04:19:32;;;;;;;6.32;1.30;;;;;;;5.43;100.00;101016.03;5022222;28;20049;-71
2024/01/23 04:22:00;;;;;;;6.65;1.45;;;;;;;5.45;100.00;101021.25;5030978;28;20071;-72
2024/01/23 04:24:30;;;;;;;6.68;1.13;;;;;;;5.40;100.00;101025.69;5023062;28;20092;-72
2024/01/23 04:27:00;;;;;;;9.43;1.45;;;;;;;5.39;100.00;101031.84;5026332;28;20140;-75
2024/01/23 04:29:37;;;;;;;5.93;1.05;;;;;;;5.38;100.00;101023.09;5016867;28;20045;-72
2024/01/23 04:32:08;;;;;;;9.75;1.38;;;;;;;5.37;100.00;101031.00;5029452;28;20037;-72
2024/01/23 04:34:36;;;;;;;10.60;1.45;;;;;;;5.38;100.00;101043.25;5027185;28;20401;-71
2024/01/23 04:37:06;;;;;;;11.43;1.25;;;;;;;5.39;100.00;101050.22;5047713;28;20052;-72
2024/01/23 04:39:36;;;;;;;10.15;1.10;;;;;;;5.37;100.00;101063.38;5021523;28;20049;-72
2024/01/23 04:42:06;;;;;;;8.43;1.30;;;;;;;5.31;100.00;101074.00;5039288;28;20049;-72
2024/01/23 04:44:34;;;;;;;6.65;1.13;;;;;;;5.22;100.00;101072.34;5027788;28;20509;-74
2024/01/23 04:47:02;;;;;;;7.22;1.40;;;;;;;5.17;100.00;101068.09;5049573;28;20140;-72
2024/01/23 04:49:36;;;;;;;9.80;1.10;;;;;;;5.21;100.00;101082.88;5012469;28;20055;-72
2024/01/23 04:52:05;;;;;;;6.28;0.80;;;;;;;5.20;100.00;101084.63;5049849;28;20061;-73
2024/01/23 04:54:33;;;;;;;10.40;1.63;;;;;;;5.23;100.00;101091.59;5049810;28;20104;-72
2024/01/23 04:57:02;;;;;;;10.35;1.40;;;;;;;5.19;100.00;101098.69;5030306;28;20053;-72
2024/01/23 04:59:32;;;;;;;12.93;1.38;;;;;;;5.11;100.00;101087.41;5022427;28;20049;-73
2024/01/23 05:02:02;;;;;;;6.15;1.10;;;;;;;5.06;100.00;101097.09;5015659;28;20048;-72
2024/01/23 05:04:30;;;;;;;10.57;1.42;;;;;;;5.05;100.00;101102.34;5043730;28;20045;-72
2024/01/23 05:06:59;;;;;;;8.60;1.33;;;;;;;5.06;100.00;101104.09;5027357;28;20041;-73
2024/01/23 05:09:31;;;;;;;6.78;1.52;;;;;;;5.10;100.00;101116.28;5015416;28;20518;-71
2024/01/23 05:11:59;;;;;;;6.43;1.33;;;;;;;5.12;100.00;101127.66;5031777;28;20049;-71
2024/01/23 05:14:29;;;;;;;9.57;2.15;;;;;;;5.07;100.00;101130.31;5049842;28;20061;-72
2024/01/23 05:16:57;;;;;;;10.52;1.67;;;;;;;4.95;100.00;101127.84;5021121;28;20065;-71
2024/01/23 05:19:26;;;;;;;7.97;1.40;;;;;;;4.97;100.00;101133.97;5040416;28;20042;-72
2024/01/23 05:21:54;;;;;;;8.50;1.73;;;;;;;4.97;100.00;101131.34;5027370;28;20141;-72
2024/01/23 05:24:27;;;;;;;11.40;1.50;;;;;;;4.97;100.00;101138.34;5015581;28;20056;-73
2024/01/23 05:26:55;;;;;;;9.23;1.65;;;;;;;4.93;100.00;101142.75;5018449;28;20046;-74
2024/01/23 05:29:29;;;;;;;8.95;1.58;;;;;;;4.92;100.00;101154.13;5036759;28;20040;-71
2024/01/23 05:31:57;;;;;;;9.68;1.70;;;;;;;4.88;100.00;101166.41;5023740;28;20060;-71
2024/01/23 05:34:25;;;;;;;11.27;1.60;;;;;;;4.87;100.00;101166.47;5025574;28;20045;-71
2024/01/23 05:36:55;;;;;;;11.18;1.63;;;;;;;4.87;100.00;101169.97;5042438;28;20050;-74
2024/01/23 05:39:26;;;;;;;11.10;1.85;;;;;;;4.88;100.00;101171.66;5024166;28;20049;-72
2024/01/23 05:42:00;;;;;;;14.27;2.05;;;;;;;4.85;100.00;101174.34;5024016;28;20050;-72
2024/01/23 05:44:28;;;;;;;8.60;1.50;;;;;;;4.84;100.00;101177.84;5035022;28;20057;-72
2024/01/23 05:46:58;;;;;;;10.63;1.80;;;;;;;4.81;100.00;101182.25;5026480;28;20084;-73
2024/01/23 05:49:27;;;;;;;13.43;2.08;;;;;;;4.71;100.00;101181.50;5040882;28;20079;-72
2024/01/23 05:51:55;;;;;;;11.50;2.07;;;;;;;4.74;100.00;101186.69;5049439;28;20040;-71
2024/01/23 05:54:25;;;;;;;8.43;1.75;;;;;;;4.69;100.00;101192.91;5025754;28;20461;-72
2024/01/23 05:56:53;;;;;;;9.20;1.60;;;;;;;4.63;100.00;101198.19;5034059;28;20106;-73
2024/01/23 05:59:22;;;;;;;10.60;1.70;;;;;;;4.64;100.00;101194.69;5039274;28;20066;-71
2024/01/23 06:01:53;;;;;;;13.68;1.85;;;;;;;4.66;100.00;101196.41;5017052;28;20069;-72
2024/01/23 06:04:23;;;;;;;11.65;1.80;;;;;;;4.61;100.00;101197.34;5037692;28;20060;-71
2024/01/23 06:06:54;;;;;;;9.75;2.03;;;;;;;4.56;100.00;101203.47;5036503;28;20038;-71
2024/01/23 06:09:23;;;;;;;13.05;2.30;;;;;;;4.58;100.00;101206.09;5028821;28;20045;-72
2024/01/23 06:11:52;;;;;;;14.35;1.98;;;;;;;4.57;100.00;101210.47;5040009;28;20058;-71
2024/01/23 06:14:25;;;;;;;10.68;2.00;;;;;;;4.57;100.00;101228.84;5051845;28;20049;-72
2024/01/23 06:16:58;;;;;;;11.88;2.08;;;;;;;4.54;100.00;101226.25;5025085;28;20412;-73
2024/01/23 06:19:29;;;;;;;13.93;1.90;;;;;;;4.44;100.00;101235.06;5035965;28;20513;-73
2024/01/23 06:21:59;;;;;;;12.27;2.25;;;;;;;4.54;100.00;101246.38;5027830;28;20109;-72
2024/01/23 06:24:32;;;;;;;6.20;1.40;;;;;;;4.51;100.00;101259.50;5038487;28;20056;-71
2024/01/23 06:27:02;;;;;;;12.35;2.47;;;;;;;4.47;100.00;101270.91;5038493;28;20486;-73
2024/01/23 06:29:31;;;;;;;10.77;1.83;;;;;;;4.37;100.00;101258.75;5022075;28;20045;-72
2024/01/23 06:31:59;;;;;;;8.25;2.10;;;;;;;4.40;100.00;101280.59;5019545;28;20049;-71
2024/01/23 06:34:28;;;;;;;12.57;1.85;;;;;;;4.38;100.00;101281.47;5024188;28;20041;-72
2024/01/23 06:36:58;;;;;;;15.43;2.10;;;;;;;4.38;100.00;101295.47;5011963;28;20140;-72
2024/01/23 06:39:26;;;;;;;10.35;2.22;;;;;;;4.32;100.00;101279.75;5010507;28;20160;-71
2024/01/23 06:41:56;;;;;;;14.35;1.90;;;;;;;4.35;100.00;101307.72;5038841;28;20502;-71
2024/01/23 06:44:27;;;;;;;15.20;2.78;;;;;;;4.38;100.00;101318.19;5008518;28;20073;-72
2024/01/23 06:46:56;;;;;;;11.45;2.20;;;;;;;4.39;100.00;101328.66;5035848;28;20042;-74
2024/01/23 06:49:33;;;;;;;14.02;2.08;;;;;;;4.33;100.00;101330.44;5027827;28;20053;-74
2024/01/23 06:52:03;;;;;;;14.32;2.45;;;;;;;4.36;100.00;101325.19;5022659;28;20084;-71
2024/01/23 06:54:32;;;;;;;16.33;2.87;;;;;;;4.34;100.00;101338.31;5019275;28;20084;-74
2024/01/23 06:57:01;;;;;;;12.25;2.70;;;;;;;4.31;100.00;101351.44;5019430;28;20077;-73
2024/01/23 06:59:32;;;;;;;11.70;2.35;;;;;;;4.18;100.00;101348.03;5025819;28;20053;-71
2024/01/23 07:02:02;;;;;;;13.75;2.90;;;;;;;4.17;100.00;101353.25;5015691;28;20041;-74
2024/01/23 07:04:36;;;;;;;11.65;2.47;;;;;;;4.20;100.00;101355.88;5033125;28;20041;-73
2024/01/23 07:07:06;;;;;;;13.20;2.03;;;;;;;4.24;100.00;101357.59;5007146;28;20055;-72
2024/01/23 07:09:35;;;;;;;18.13;2.10;;;;;;;4.23;100.00;101345.38;5009528;28;20052;-72
2024/01/23 07:12:05;;;;;;;15.65;2.67;;;;;;;4.35;100.00;101360.16;5025221;28;20064;-73
2024/01/23 07:14:37;;;;;;;;;;;;;;;4.35;100.00;101366.28;5022611;28;20103;-73
2024/01/23 07:17:05;;;;;;;12.90;2.78;;;;;;;4.33;100.00;101361.91;5035982;28;19976;-73
2024/01/23 07:19:34;;;;;;;12.75;2.00;;;;;;;4.38;100.00;101370.63;5028325;28;20061;-72
2024/01/23 07:22:02;;;;;;;13.45;2.55;;;;;;;4.34;100.00;101376.75;5035330;28;20060;-74
2024/01/23 07:24:31;;;;;;;19.80;2.35;;;;;;;4.38;100.00;101400.34;5036392;28;20084;-72
2024/01/23 07:26:59;;;;;;;24.90;3.17;;;;;;;4.42;100.00;101378.44;5028588;28;20049;-71
2024/01/23 07:29:31;;;;;;;21.02;2.92;;;;;;;4.52;100.00;101395.03;5008050;28;20073;-70
2024/01/23 07:32:02;;;;;;;19.42;2.38;;;;;;;4.64;100.00;101394.94;5034908;28;20052;-72
2024/01/23 07:34:31;;;;;;;17.35;2.38;;;;;;;4.77;100.00;101395.72;5035300;28;20792;-72
2024/01/23 07:36:59;;;;;;;20.95;2.53;;;;;;;4.79;100.00;101404.44;5021172;28;20164;-72
2024/01/23 07:39:28;;;;;;;21.25;3.25;;;;;;;4.74;100.00;101391.34;5026714;28;20073;-72
2024/01/23 07:41:58;;;;;;;21.83;2.63;;;;;;;4.91;100.00;101410.47;5014549;28;20050;-72
2024/01/23 07:44:28;;;;;;;17.85;2.78;;;;;;;4.90;100.00;101415.72;5034272;28;20551;-74
2024/01/23 07:46:58;;;;;;;15.40;2.95;;;;;;;4.85;100.00;101409.66;5029683;28;20136;-74
2024/01/23 07:49:28;;;;;;;17.63;2.67;;;;;;;4.85;100.00;101409.66;5013263;28;20165;-71
2024/01/23 07:51:57;;;;;;;17.65;2.83;;;;;;;4.97;100.00;101433.19;5017716;28;22522;-71
2024/01/23 07:54:27;;;;;;;21.08;3.13;;;;;;;4.97;100.00;101422.69;5002832;28;20491;-72
2024/01/23 07:56:56;;;;;;;13.52;2.50;;;;;;;5.06;100.00;101432.22;5016707;28;20041;-74
2024/01/23 07:59:24;;;;;;;19.27;2.88;;;;;;;5.01;100.00;101418.28;5015576;28;20038;-76
2024/01/23 08:01:56;;;;;;;14.40;2.88;;;;;;;5.12;100.00;101425.19;5036640;28;20699;-74
2024/01/23 08:04:28;;;;;;;15.07;2.83;;;;;;;5.19;100.00;101426.91;5020701;28;20073;-72
2024/01/23 08:06:57;;;;;;;19.83;3.40;;;;;;;5.21;100.00;101429.47;5020836;28;20755;-73
2024/01/23 08:09:27;;;;;;;19.90;3.22;;;;;;;5.17;100.00;101433.91;5023700;28;20095;-73
2024/01/23 08:11:56;;;;;;;17.75;3.38;;;;;;;5.13;100.00;101440.06;5028187;28;20046;-74
2024/01/23 08:14:25;;;;;;;20.80;2.63;;;;;;;5.16;100.00;101434.78;5025101;28;20059;-73
2024/01/23 08:16:53;;;;;;;20.73;3.28;;;;;;;5.13;100.00;101440.06;5030535;28;20049;-75
2024/01/23 08:19:32;;;;;;;24.50;3.63;;;;;;;5.17;100.00;101435.66;5012326;28;20491;-75
2024/01/23 08:22:01;;;;;;;17.13;2.80;;;;;;;5.19;100.00;101426.03;5045522;28;20128;-74
2024/01/23 08:24:29;;;;;;;19.25;2.58;;;;;;;5.23;100.00;101441.72;5045554;28;20052;-71
2024/01/23 08:27:00;;;;;;;17.85;2.78;;;;;;;5.31;100.00;101446.91;5043123;28;20569;-73
2024/01/23 08:29:31;;;;;;;14.43;2.53;;;;;;;5.39;100.00;101454.72;5037189;28;20057;-73
2024/01/23 08:31:59;;;;;;;24.42;2.83;;;;;;;5.39;100.00;101457.34;5017231;28;20061;-73
2024/01/23 08:34:27;;;;;;;17.08;2.65;;;;;;;5.43;100.00;101456.44;5042382;28;20723;-72
2024/01/23 08:36:57;;;;;;;14.10;2.70;;;;;;;5.40;100.00;101452.06;5027340;28;20048;-72
2024/01/23 08:39:26;;;;;;;17.10;2.75;;;;;;;5.52;100.00;101474.72;5029918;28;20050;-73
2024/01/23 08:41:56;;;;;;;15.55;3.45;;;;;;;5.55;100.00;101477.34;5027662;28;20058;-75
2024/01/23 08:44:29;;;;;;;15.43;2.40;;;;;;;5.64;100.00;101485.16;5043593;28;20044;-73
2024/01/23 08:46:57;;;;;;;19.63;3.22;;;;;;;5.65;100.00;101497.41;5026896;28;20053;-73
2024/01/23 08:49:27;;;;;;;15.68;2.80;;;;;;;5.67;100.00;101492.13;5041622;28;20836;-73
2024/01/23 08:51:58;;;;;;;19.58;3.50;;;;;;;5.74;100.00;101499.94;5023733;28;20770;-73
2024/01/23 08:54:29;;;;;;;19.40;2.75;;;;;;;5.83;100.00;101499.81;5028005;28;20045;-73
2024/01/23 08:56:59;;;;;;;13.70;2.70;;;;;;;5.87;100.00;101506.81;5015874;28;20051;-73
2024/01/23 08:59:30;;;;;;;22.40;3.58;;;;;;;5.90;100.00;101504.19;5044847;28;20049;-74
2024/01/23 09:02:00;;;;;;;17.02;3.40;;;;;;;6.03;100.00;101511.94;5042609;28;20050;-73
2024/01/23 09:04:28;;;;;;;16.88;3.25;;;;;;;6.11;100.00;101515.38;5029409;28;20041;-74
2024/01/23 09:06:58;;;;;;;17.80;2.88;;;;;;;6.15;100.00;101517.06;5023988;28;20049;-73
2024/01/23 09:09:29;;;;;;;18.25;3.22;;;;;;;6.20;100.00;101520.53;5037291;28;20045;-73
2024/01/23 09:11:58;;;;;;;17.00;2.63;;;;;;;6.23;100.00;101517.88;5029542;28;20057;-75
2024/01/23 09:14:26;;;;;;;18.92;3.55;;;;;;;6.18;100.00;101510.00;5027607;28;20536;-74
2024/01/23 09:16:56;;;;;;;15.00;2.70;;;;;;;6.33;100.00;101532.63;5044206;28;20528;-76
2024/01/23 09:19:27;;;;;;;12.48;2.35;;;;;;;6.40;100.00;101530.81;5048644;28;20053;-73
2024/01/23 09:21:57;;;;;;;15.48;2.83;;;;;;;6.46;100.00;101528.97;5036586;28;20641;-73
2024/01/23 09:24:26;;;;;;;15.43;2.03;;;;;;;6.47;100.00;101530.72;5033559;28;21552;-72
2024/01/23 09:27:04;;;;;;;13.13;2.58;;;;;;;6.56;100.00;101538.53;5032863;28;20528;-72
2024/01/23 09:29:49;;;;;;;18.33;3.50;;;;;;;6.52;100.00;101543.81;5033452;28;20053;-74
2024/01/23 09:32:19;;;;;;;19.42;2.63;;;;;;;6.32;100.00;101536.16;5040907;28;20056;-73
2024/01/23 09:34:47;;;;;;;;;;;;;;;6.37;100.00;101560.66;5043665;28;20053;-74
2024/01/23 09:37:18;;;;;;;14.95;2.33;;;;;;;6.31;100.00;101566.84;5033825;28;19932;-72
2024/01/23 09:39:49;;;;;;;16.77;2.65;;;;;;;6.28;100.00;101564.28;5046818;28;20084;-72
2024/01/23 09:42:18;;;;;;;19.15;3.08;;;;;;;6.37;100.00;101555.41;5045755;28;20052;-74
2024/01/23 09:44:55;;;;;;;17.33;3.05;;;;;;;6.40;100.00;101559.75;5020437;28;20045;-73
2024/01/23 09:47:25;;;;;;;21.65;2.85;;;;;;;6.39;100.00;101558.03;5030100;28;20065;-74
2024/01/23 09:49:54;;;;;;;14.75;2.55;;;;;;;6.42;100.00;101568.53;5023120;28;20044;-73
2024/01/23 09:52:24;;;;;;;;;;;;;;;6.46;100.00;101583.34;5025417;28;20045;-73
2024/01/23 09:54:54;;;;;;;16.58;2.65;;;;;;;6.47;100.00;101578.09;5024255;28;20352;-73
2024/01/23 09:57:23;;;;;;;22.10;3.15;;;;;;;6.48;100.00;101584.22;5044841;28;20061;-74
2024/01/23 09:59:52;;;;;;;18.05;2.85;;;;;;;6.59;100.00;101585.84;5037675;28;20088;-73
2024/01/23 10:02:22;;;;;;;20.77;3.05;;;;;;;6.60;100.00;101589.38;5028854;28;20042;-73
2024/01/23 10:04:52;;;;;;;14.18;2.67;;;;;;;6.59;100.00;101587.63;5038437;28;20068;-73
2024/01/23 10:07:20;;;;;;;19.27;3.63;;;;;;;6.62;100.00;101605.97;5023605;28;20042;-74
2024/01/23 10:09:50;;;;;;;20.02;2.92;;;;;;;6.60;100.00;101590.22;5028897;28;20049;-73
2024/01/23 10:12:20;;;;;;;20.30;4.90;;;;;;;6.61;100.00;101594.56;5030657;28;20048;-72
2024/01/23 10:14:50;;;;;;;17.60;3.03;;;;;;;6.60;100.00;101586.72;5021167;28;20084;-73
2024/01/23 10:17:18;;;;;;;18.90;2.95;;;;;;;6.56;100.00;101591.16;5034934;28;20049;-74
2024/01/23 10:19:46;;;;;;;13.75;2.88;;;;;;;6.50;100.00;101582.44;5019268;28;20049;-73
2024/01/23 10:22:15;;;;;;;20.10;3.05;;;;;;;6.54;100.00;101585.03;5017987;28;20045;-73
2024/01/23 10:24:43;;;;;;;14.68;3.03;;;;;;;6.51;100.00;101568.41;5023135;28;20050;-73
2024/01/23 10:27:17;;;;;;;15.95;3.58;;;;;;;6.51;100.00;101577.16;5021068;28;20037;-74
2024/01/23 10:29:50;;;;;;;16.80;3.17;;;;;;;6.54;100.00;101569.25;5037795;28;20049;-75
2024/01/23 10:32:19;;;;;;;21.63;2.85;;;;;;;6.58;100.00;101592.00;5037351;28;20105;-76
2024/01/23 10:34:47;;;;;;;17.23;2.90;;;;;;;6.62;100.00;101587.56;5034023;28;20161;-73
2024/01/23 10:37:16;;;;;;;14.93;3.28;;;;;;;6.68;100.00;101588.38;5022621;28;20073;-76
2024/01/23 10:39:46;;;;;;;19.45;3.22;;;;;;;6.78;100.00;101591.75;5024548;28;20085;-75
2024/01/23 10:42:18;;;;;;;17.17;2.75;;;;;;;6.86;100.00;101591.66;5023475;28;20061;-75
2024/01/23 10:44:51;;;;;;;16.95;3.08;;;;;;;6.96;100.00;101603.81;5026503;28;20625;-74
2024/01/23 10:47:21;;;;;;;19.08;3.35;;;;;;;7.02;100.00;101601.13;5028262;28;20343;-75
2024/01/23 10:49:51;;;;;;;16.95;2.85;;;;;;;7.03;100.00;101605.50;5049364;28;20052;-75
2024/01/23 10:52:20;;;;;;;18.85;3.08;;;;;;;7.04;100.00;101617.78;5043734;28;20049;-77
2024/01/23 10:54:54;;;;;;;16.80;2.95;;;;;;;7.06;100.00;101609.84;5048663;28;20080;-72
2024/01/23 10:57:23;;;;;;;20.17;2.42;;;;;;;7.03;100.00;101595.81;5027986;28;20057;-73
2024/01/23 10:59:54;;;;;;;22.55;3.75;;;;;;;7.05;100.00;101603.72;5039107;28;20053;-76
2024/01/23 11:02:30;;;;;;;19.08;2.85;;;;;;;7.14;100.00;101614.09;5021945;28;20053;-80
2024/01/23 11:05:02;;;;;;;17.55;3.10;;;;;;;7.14;100.00;101619.38;5011425;28;20418;-77
2024/01/23 11:07:38;;;;;;;19.67;3.10;;;;;;;7.00;100.00;101587.09;5025507;28;20087;-74
2024/01/23 11:10:15;;;;;;;15.88;2.90;;;;;;;7.15;100.00;101605.31;5038138;28;20057;-75
2024/01/23 11:13:06;;;;;;;17.02;2.63;;;;;;;7.17;100.00;101613.19;5017461;28;20041;-74
2024/01/23 11:15:38;;;;;;;14.93;2.97;;;;;;;7.23;100.00;101608.72;5022322;28;20508;-74
2024/01/23 11:18:23;;;;;;;24.15;2.90;;;;;;;7.31;100.00;101627.06;5039360;28;20037;-77
2024/01/23 11:21:17;;;;;;;15.13;2.92;;;;;;;7.24;100.00;101618.34;5023053;28;20118;-76
2024/01/23 11:23:48;;;;;;;14.95;2.45;;;;;;;7.30;100.00;101620.91;5008244;28;20411;-78
2024/01/23 11:26:19;;;;;;;15.80;2.80;;;;;;;7.34;100.00;101617.34;5034312;28;20056;-77
2024/01/23 11:28:52;;;;;;;18.15;2.83;;;;;;;7.46;100.00;101625.97;5021451;28;20049;-76
2024/01/23 11:31:28;;;;;;;14.77;2.55;;;;;;;7.53;100.00;101625.88;5029960;28;20108;-75